Sasanqua — 3FFV3 — position and weather

sailwx.info

Track history (hours):
 
Tides and Currents Weather Stations Pressure Air Temp Water Temp Dewpoint Dewpoint Depression Visibility Wind Speed Wind Dir Waves Ship Positions

Sasanqua

Last reported at 2018-Feb-02 11:53 UTC. Time now 2018-Feb-20 23:49 UTC.
Position N 34°05' E 130°00'.
Warning: this ship's position is 18 days out of date.

Length 134 m; draft 5.3 m.

Type: Cargo ship. MMSI: 352256000.

Date/timePositionNaut miles runAvg speedWind from/ knotsBaromVisibWave heightAir tempDewpointWater temp
2018-Feb-02 11:53N 34°05' E 130°00'616.4
2018-Feb-02 11:30N 33°59' E 130°04'816.6
2018-Feb-02 11:01N 33°52' E 130°09'816.4
2018-Feb-02 10:31N 33°45' E 130°14'815.5
2018-Feb-02 10:00N 33°39' E 130°19'5 9.5
2018-Feb-02 09:31N 33°37' E 130°24'0 0.2
2018-Feb-02 08:59N 33°37' E 130°24'0 0.1
2018-Feb-02 08:29N 33°37' E 130°24'0 0.0
2018-Feb-02 07:59N 33°37' E 130°24'0 0.0
2018-Feb-02 07:29N 33°37' E 130°24'0 0.0
2018-Feb-02 06:59N 33°37' E 130°24'0 0.0
2018-Feb-02 06:29N 33°37' E 130°24'0 0.1
2018-Feb-02 05:59N 33°37' E 130°24'0 0.1
2018-Feb-02 05:29N 33°37' E 130°24'0 0.0
2018-Feb-02 04:59N 33°37' E 130°24'0 0.0
2018-Feb-02 04:29N 33°37' E 130°24'0 0.0
2018-Feb-02 03:59N 33°37' E 130°24'0 0.0
2018-Feb-02 03:29N 33°37' E 130°24'0 0.1
2018-Feb-02 02:59N 33°37' E 130°24'0 0.1
2018-Feb-02 02:29N 33°37' E 130°24'0 0.0
2018-Feb-02 01:59N 33°37' E 130°24'0 0.1
2018-Feb-02 01:29N 33°37' E 130°24'0 0.1
2018-Feb-02 00:59N 33°37' E 130°24'0 0.1
2018-Feb-02 00:27N 33°37' E 130°24'0 0.8
2018-Feb-02 00:00N 33°37' E 130°24'3 6.9
2018-Feb-01 23:30N 33°38' E 130°20'4 8.2
2018-Feb-01 23:00N 33°40' E 130°16'1211.9
2018-Feb-01 22:01N 33°52' E 130°21'917.7
2018-Feb-01 21:30N 33°58' E 130°28'2411.8
2018-Feb-01 19:30N 33°57' E 130°57'4 7.7
2018-Feb-01 19:00N 33°58' E 131°01'713.5
2018-Feb-01 18:30N 33°54' E 131°08'715.0
2018-Feb-01 18:00N 33°51' E 131°16'816.4
2018-Feb-01 17:30N 33°49' E 131°25'816.5
2018-Feb-01 17:01N 33°48' E 131°35'916.3
2018-Feb-01 16:29N 33°46' E 131°45'2316.8
2018-Feb-01 15:07N 33°43' E 132°13'217.5
2018-Feb-01 14:59N 33°44' E 132°15'2617.1
2018-Feb-01 13:30N 33°57' E 132°41'7313.9
2018-Feb-01 08:13N 34°27' E 134°03'1014.0
2018-Feb-01 07:29N 34°24' E 134°15'816.5
2018-Feb-01 07:00N 34°26' E 134°24'917.2
2018-Feb-01 06:30N 34°29' E 134°34'816.9
2018-Feb-01 06:01N 34°32' E 134°43'816.3
2018-Feb-01 05:30N 34°35' E 134°52'714.4
2018-Feb-01 05:01N 34°38' E 135°01'612.3
2018-Feb-01 04:31N 34°36' E 135°08'714.3
2018-Feb-01 04:00N 34°38' E 135°16'3 2.8
2018-Feb-01 03:00N 34°40' E 135°13'0 0.0
2018-Feb-01 02:30N 34°40' E 135°13'0 0.0
2018-Feb-01 02:00N 34°40' E 135°13'0 0.0
2018-Feb-01 01:24N 34°40' E 135°13'0 0.0
2018-Feb-01 01:00N 34°40' E 135°13'0 0.0
2018-Feb-01 00:28N 34°40' E 135°13'0 0.0
2018-Jan-31 23:58N 34°40' E 135°13'0 0.0
2018-Jan-31 22:58N 34°40' E 135°13'0 0.0
2018-Jan-31 22:28N 34°40' E 135°13'0 0.0
2018-Jan-31 20:58N 34°40' E 135°13'0 0.0
2018-Jan-31 20:28N 34°40' E 135°13'0 0.0
2018-Jan-31 19:58N 34°40' E 135°13'0 0.0
2018-Jan-31 19:28N 34°40' E 135°13'0 0.0
2018-Jan-31 18:58N 34°40' E 135°13'0 0.0
2018-Jan-31 18:28N 34°40' E 135°13'0 0.0
2018-Jan-31 17:58N 34°40' E 135°13'0 0.0
2018-Jan-31 17:28N 34°40' E 135°13'0 0.0
2018-Jan-31 16:58N 34°40' E 135°13'0 0.0
2018-Jan-31 16:28N 34°40' E 135°13'0 0.0
2018-Jan-31 15:58N 34°40' E 135°13'0 0.0
2018-Jan-31 15:28N 34°40' E 135°13'0 0.1
2018-Jan-31 14:58N 34°40' E 135°13'0 0.1
2018-Jan-31 14:28N 34°40' E 135°13'0 0.0
2018-Jan-31 12:58N 34°40' E 135°13'0 0.0
2018-Jan-31 12:28N 34°40' E 135°13'0 0.0
2018-Jan-31 11:58N 34°40' E 135°13'0 0.0
2018-Jan-31 11:28N 34°40' E 135°13'0 0.0
2018-Jan-31 10:58N 34°40' E 135°13'0 0.0
2018-Jan-31 10:28N 34°40' E 135°13'0 0.0
2018-Jan-31 09:58N 34°40' E 135°13'0 0.0
2018-Jan-31 09:28N 34°40' E 135°13'0 0.1
2018-Jan-31 08:58N 34°40' E 135°13'0 0.1
2018-Jan-31 08:28N 34°40' E 135°13'0 0.0
2018-Jan-31 07:58N 34°40' E 135°13'0 0.0
2018-Jan-31 07:28N 34°40' E 135°13'0 0.1
2018-Jan-31 06:58N 34°40' E 135°13'1 1.9
2018-Jan-31 06:30N 34°40' E 135°14'3 6.6
2018-Jan-31 06:00N 34°38' E 135°17'510.2
2018-Jan-31 05:30N 34°33' E 135°15'713.1
2018-Jan-31 05:01N 34°28' E 135°10'815.4
2018-Jan-31 04:31N 34°22' E 135°03'714.2
2018-Jan-31 04:01N 34°16' E 134°59'815.7
2018-Jan-31 03:30N 34°08' E 134°59'816.5
2018-Jan-31 03:00N 34°00' E 134°60'816.6
2018-Jan-31 02:31N 33°52' E 134°59'916.5
2018-Jan-31 01:57N 33°43' E 134°58'  
Track history (hours):
 
Tides and Currents Weather Stations Pressure Air Temp Water Temp Dewpoint Dewpoint Depression Visibility Wind Speed Wind Dir Waves Ship Positions

Sasanqua

Last reported at 2018-Feb-02 11:53 UTC. Time now 2018-Feb-20 23:49 UTC.
Position N 34°05' E 130°00'.
Warning: this ship's position is 18 days out of date.

Length 134 m; draft 5.3 m.

Type: Cargo ship. MMSI: 352256000.

Date/timePositionNaut miles runAvg speedWind from/ knotsBaromVisibWave heightAir tempDewpointWater temp
2018-Feb-02 11:53N 34°05' E 130°00'616.4
2018-Feb-02 11:30N 33°59' E 130°04'816.6
2018-Feb-02 11:01N 33°52' E 130°09'816.4
2018-Feb-02 10:31N 33°45' E 130°14'815.5
2018-Feb-02 10:00N 33°39' E 130°19'5 9.5
2018-Feb-02 09:31N 33°37' E 130°24'0 0.2
2018-Feb-02 08:59N 33°37' E 130°24'0 0.1
2018-Feb-02 08:29N 33°37' E 130°24'0 0.0
2018-Feb-02 07:59N 33°37' E 130°24'0 0.0
2018-Feb-02 07:29N 33°37' E 130°24'0 0.0
2018-Feb-02 06:59N 33°37' E 130°24'0 0.0
2018-Feb-02 06:29N 33°37' E 130°24'0 0.1
2018-Feb-02 05:59N 33°37' E 130°24'0 0.1
2018-Feb-02 05:29N 33°37' E 130°24'0 0.0
2018-Feb-02 04:59N 33°37' E 130°24'0 0.0
2018-Feb-02 04:29N 33°37' E 130°24'0 0.0
2018-Feb-02 03:59N 33°37' E 130°24'0 0.0
2018-Feb-02 03:29N 33°37' E 130°24'0 0.1
2018-Feb-02 02:59N 33°37' E 130°24'0 0.1
2018-Feb-02 02:29N 33°37' E 130°24'0 0.0
2018-Feb-02 01:59N 33°37' E 130°24'0 0.1
2018-Feb-02 01:29N 33°37' E 130°24'0 0.1
2018-Feb-02 00:59N 33°37' E 130°24'0 0.1
2018-Feb-02 00:27N 33°37' E 130°24'0 0.8
2018-Feb-02 00:00N 33°37' E 130°24'3 6.9
2018-Feb-01 23:30N 33°38' E 130°20'4 8.2
2018-Feb-01 23:00N 33°40' E 130°16'1211.9
2018-Feb-01 22:01N 33°52' E 130°21'917.7
2018-Feb-01 21:30N 33°58' E 130°28'2411.8
2018-Feb-01 19:30N 33°57' E 130°57'4 7.7
2018-Feb-01 19:00N 33°58' E 131°01'713.5
2018-Feb-01 18:30N 33°54' E 131°08'715.0
2018-Feb-01 18:00N 33°51' E 131°16'816.4
2018-Feb-01 17:30N 33°49' E 131°25'816.5
2018-Feb-01 17:01N 33°48' E 131°35'916.3
2018-Feb-01 16:29N 33°46' E 131°45'2316.8
2018-Feb-01 15:07N 33°43' E 132°13'217.5
2018-Feb-01 14:59N 33°44' E 132°15'2617.1
2018-Feb-01 13:30N 33°57' E 132°41'7313.9
2018-Feb-01 08:13N 34°27' E 134°03'1014.0
2018-Feb-01 07:29N 34°24' E 134°15'816.5
2018-Feb-01 07:00N 34°26' E 134°24'917.2
2018-Feb-01 06:30N 34°29' E 134°34'816.9
2018-Feb-01 06:01N 34°32' E 134°43'816.3
2018-Feb-01 05:30N 34°35' E 134°52'714.4
2018-Feb-01 05:01N 34°38' E 135°01'612.3
2018-Feb-01 04:31N 34°36' E 135°08'714.3
2018-Feb-01 04:00N 34°38' E 135°16'3 2.8
2018-Feb-01 03:00N 34°40' E 135°13'0 0.0
2018-Feb-01 02:30N 34°40' E 135°13'0 0.0
2018-Feb-01 02:00N 34°40' E 135°13'0 0.0
2018-Feb-01 01:24N 34°40' E 135°13'0 0.0
2018-Feb-01 01:00N 34°40' E 135°13'0 0.0
2018-Feb-01 00:28N 34°40' E 135°13'0 0.0
2018-Jan-31 23:58N 34°40' E 135°13'0 0.0
2018-Jan-31 22:58N 34°40' E 135°13'0 0.0
2018-Jan-31 22:28N 34°40' E 135°13'0 0.0
2018-Jan-31 20:58N 34°40' E 135°13'0 0.0
2018-Jan-31 20:28N 34°40' E 135°13'0 0.0
2018-Jan-31 19:58N 34°40' E 135°13'0 0.0
2018-Jan-31 19:28N 34°40' E 135°13'0 0.0
2018-Jan-31 18:58N 34°40' E 135°13'0 0.0
2018-Jan-31 18:28N 34°40' E 135°13'0 0.0
2018-Jan-31 17:58N 34°40' E 135°13'0 0.0
2018-Jan-31 17:28N 34°40' E 135°13'0 0.0
2018-Jan-31 16:58N 34°40' E 135°13'0 0.0
2018-Jan-31 16:28N 34°40' E 135°13'0 0.0
2018-Jan-31 15:58N 34°40' E 135°13'0 0.0
2018-Jan-31 15:28N 34°40' E 135°13'0 0.1
2018-Jan-31 14:58N 34°40' E 135°13'0 0.1
2018-Jan-31 14:28N 34°40' E 135°13'0 0.0
2018-Jan-31 12:58N 34°40' E 135°13'0 0.0
2018-Jan-31 12:28N 34°40' E 135°13'0 0.0
2018-Jan-31 11:58N 34°40' E 135°13'0 0.0
2018-Jan-31 11:28N 34°40' E 135°13'0 0.0
2018-Jan-31 10:58N 34°40' E 135°13'0 0.0
2018-Jan-31 10:28N 34°40' E 135°13'0 0.0
2018-Jan-31 09:58N 34°40' E 135°13'0 0.0
2018-Jan-31 09:28N 34°40' E 135°13'0 0.1
2018-Jan-31 08:58N 34°40' E 135°13'0 0.1
2018-Jan-31 08:28N 34°40' E 135°13'0 0.0
2018-Jan-31 07:58N 34°40' E 135°13'0 0.0
2018-Jan-31 07:28N 34°40' E 135°13'0 0.1
2018-Jan-31 06:58N 34°40' E 135°13'1 1.9
2018-Jan-31 06:30N 34°40' E 135°14'3 6.6
2018-Jan-31 06:00N 34°38' E 135°17'510.2
2018-Jan-31 05:30N 34°33' E 135°15'713.1
2018-Jan-31 05:01N 34°28' E 135°10'815.4
2018-Jan-31 04:31N 34°22' E 135°03'714.2
2018-Jan-31 04:01N 34°16' E 134°59'815.7
2018-Jan-31 03:30N 34°08' E 134°59'816.5
2018-Jan-31 03:00N 34°00' E 134°60'816.6
2018-Jan-31 02:31N 33°52' E 134°59'916.5
2018-Jan-31 01:57N 33°43' E 134°58'  

Dump ship's entire track history